Corley, West Virginia
Current Conditions -  °F | °C
As of 8:35 AM on Wednesday 22 Oct 2014 (Local Time) from KW22 Reporting Station
Drizzle Drizzle  
Wind Chill: 40°   Ceiling: 200
Heat Index: 45°   Visibility: 1.7mi
Dew Point: 45°   Wind: 8mph
Humidity: 100%   Direction: 350°N
Pressure: 30.1"   Gusts: NA
Location:  38.744°N, 80.5968°W
Report Text: KW22 221235Z AUTO 35007KT 1 3/4SM -DZ OVC002 07/07 A3010 RMK AO2
Loading
Personal Weather Stations






























Interactive Weather Map
Tropical Storm Tracking
New forecast layout! Learn more

10-Day Weather Forecast

Advertisements
Track Severe Weather on mobile